sensor_id;sensor_type;location;lat;lon;timestamp;P1;durP1;ratioP1;P2;durP2;ratioP2
7158;SDS011;63175;52.374;13.132;2024-03-22T00:01:54;12.73;;;8.80;;
7158;SDS011;63175;52.374;13.132;2024-03-22T00:04:21;10.83;;;8.30;;
7158;SDS011;63175;52.374;13.132;2024-03-22T00:06:47;9.93;;;8.40;;
7158;SDS011;63175;52.374;13.132;2024-03-22T00:09:15;10.50;;;8.03;;
7158;SDS011;63175;52.374;13.132;2024-03-22T00:11:41;13.93;;;7.27;;
7158;SDS011;63175;52.374;13.132;2024-03-22T00:14:09;9.53;;;8.20;;
7158;SDS011;63175;52.374;13.132;2024-03-22T00:16:35;10.60;;;8.20;;
7158;SDS011;63175;52.374;13.132;2024-03-22T00:19:04;9.20;;;7.60;;
7158;SDS011;63175;52.374;13.132;2024-03-22T00:21:30;9.97;;;7.43;;
7158;SDS011;63175;52.374;13.132;2024-03-22T00:23:57;7.20;;;6.47;;
7158;SDS011;63175;52.374;13.132;2024-03-22T00:26:22;6.97;;;6.27;;
7158;SDS011;63175;52.374;13.132;2024-03-22T00:28:49;8.20;;;6.90;;
7158;SDS011;63175;52.374;13.132;2024-03-22T00:31:15;10.10;;;8.27;;
7158;SDS011;63175;52.374;13.132;2024-03-22T00:33:42;9.60;;;8.17;;
7158;SDS011;63175;52.374;13.132;2024-03-22T00:36:10;9.50;;;7.80;;
7158;SDS011;63175;52.374;13.132;2024-03-22T00:38:36;8.57;;;7.40;;
7158;SDS011;63175;52.374;13.132;2024-03-22T00:41:02;8.83;;;7.13;;
7158;SDS011;63175;52.374;13.132;2024-03-22T00:43:29;8.30;;;7.33;;
7158;SDS011;63175;52.374;13.132;2024-03-22T00:45:55;9.37;;;7.10;;
7158;SDS011;63175;52.374;13.132;2024-03-22T00:48:21;9.63;;;7.43;;
7158;SDS011;63175;52.374;13.132;2024-03-22T00:50:47;10.13;;;7.40;;
7158;SDS011;63175;52.374;13.132;2024-03-22T00:53:15;9.20;;;7.27;;
7158;SDS011;63175;52.374;13.132;2024-03-22T00:55:41;8.93;;;7.97;;
7158;SDS011;63175;52.374;13.132;2024-03-22T00:58:08;9.50;;;7.93;;
7158;SDS011;63175;52.374;13.132;2024-03-22T01:00:34;11.20;;;9.27;;
7158;SDS011;63175;52.374;13.132;2024-03-22T01:03:01;12.30;;;9.20;;
7158;SDS011;63175;52.374;13.132;2024-03-22T01:05:27;9.23;;;7.80;;
7158;SDS011;63175;52.374;13.132;2024-03-22T01:07:54;18.73;;;12.30;;
7158;SDS011;63175;52.374;13.132;2024-03-22T01:10:21;11.20;;;9.50;;
7158;SDS011;63175;52.374;13.132;2024-03-22T01:12:48;10.60;;;8.93;;
7158;SDS011;63175;52.374;13.132;2024-03-22T01:15:13;11.80;;;8.83;;
7158;SDS011;63175;52.374;13.132;2024-03-22T01:17:40;12.33;;;9.00;;
7158;SDS011;63175;52.374;13.132;2024-03-22T01:20:06;14.13;;;9.30;;
7158;SDS011;63175;52.374;13.132;2024-03-22T01:22:33;12.27;;;8.47;;
7158;SDS011;63175;52.374;13.132;2024-03-22T01:24:59;13.93;;;9.30;;
7158;SDS011;63175;52.374;13.132;2024-03-22T01:27:27;11.67;;;8.80;;
7158;SDS011;63175;52.374;13.132;2024-03-22T01:29:53;14.50;;;10.40;;
7158;SDS011;63175;52.374;13.132;2024-03-22T01:32:19;17.40;;;11.60;;
7158;SDS011;63175;52.374;13.132;2024-03-22T01:34:45;18.77;;;10.03;;
7158;SDS011;63175;52.374;13.132;2024-03-22T01:37:12;11.60;;;8.00;;
7158;SDS011;63175;52.374;13.132;2024-03-22T01:39:38;14.43;;;9.60;;
7158;SDS011;63175;52.374;13.132;2024-03-22T01:42:04;13.80;;;9.63;;
7158;SDS011;63175;52.374;13.132;2024-03-22T01:44:32;13.43;;;9.43;;
7158;SDS011;63175;52.374;13.132;2024-03-22T01:46:59;13.13;;;9.50;;
7158;SDS011;63175;52.374;13.132;2024-03-22T01:49:25;11.57;;;9.20;;
7158;SDS011;63175;52.374;13.132;2024-03-22T01:51:52;13.03;;;10.13;;
7158;SDS011;63175;52.374;13.132;2024-03-22T01:54:19;11.27;;;8.93;;
7158;SDS011;63175;52.374;13.132;2024-03-22T01:56:46;12.77;;;9.87;;
7158;SDS011;63175;52.374;13.132;2024-03-22T01:59:13;17.90;;;11.73;;
7158;SDS011;63175;52.374;13.132;2024-03-22T02:01:41;13.10;;;9.70;;
7158;SDS011;63175;52.374;13.132;2024-03-22T02:04:07;19.80;;;12.20;;
7158;SDS011;63175;52.374;13.132;2024-03-22T02:06:34;15.20;;;10.83;;
7158;SDS011;63175;52.374;13.132;2024-03-22T02:08:59;14.30;;;11.07;;
7158;SDS011;63175;52.374;13.132;2024-03-22T02:11:29;17.13;;;11.10;;
7158;SDS011;63175;52.374;13.132;2024-03-22T02:13:55;14.63;;;10.60;;
7158;SDS011;63175;52.374;13.132;2024-03-22T02:16:22;15.20;;;10.93;;
7158;SDS011;63175;52.374;13.132;2024-03-22T02:18:49;16.77;;;10.40;;
7158;SDS011;63175;52.374;13.132;2024-03-22T02:21:16;16.10;;;10.97;;
7158;SDS011;63175;52.374;13.132;2024-03-22T02:23:43;15.00;;;10.63;;
7158;SDS011;63175;52.374;13.132;2024-03-22T02:26:10;14.33;;;10.27;;
7158;SDS011;63175;52.374;13.132;2024-03-22T02:28:35;16.70;;;10.97;;
7158;SDS011;63175;52.374;13.132;2024-03-22T02:31:02;18.37;;;12.93;;
7158;SDS011;63175;52.374;13.132;2024-03-22T02:33:29;22.53;;;11.20;;
7158;SDS011;63175;52.374;13.132;2024-03-22T02:35:56;16.03;;;10.93;;
7158;SDS011;63175;52.374;13.132;2024-03-22T02:38:22;13.10;;;9.80;;
7158;SDS011;63175;52.374;13.132;2024-03-22T02:40:51;15.50;;;11.00;;
7158;SDS011;63175;52.374;13.132;2024-03-22T02:43:17;20.60;;;11.70;;
7158;SDS011;63175;52.374;13.132;2024-03-22T02:45:46;15.10;;;10.20;;
7158;SDS011;63175;52.374;13.132;2024-03-22T02:48:12;14.30;;;10.23;;
7158;SDS011;63175;52.374;13.132;2024-03-22T02:50:39;13.83;;;10.60;;
7158;SDS011;63175;52.374;13.132;2024-03-22T02:53:04;15.30;;;10.40;;
7158;SDS011;63175;52.374;13.132;2024-03-22T02:55:35;14.53;;;9.83;;
7158;SDS011;63175;52.374;13.132;2024-03-22T02:58:03;14.50;;;10.30;;
7158;SDS011;63175;52.374;13.132;2024-03-22T03:00:30;14.33;;;10.80;;
7158;SDS011;63175;52.374;13.132;2024-03-22T03:02:56;16.10;;;10.77;;
7158;SDS011;63175;52.374;13.132;2024-03-22T03:05:23;15.73;;;10.90;;
7158;SDS011;63175;52.374;13.132;2024-03-22T03:07:48;15.20;;;10.70;;
7158;SDS011;63175;52.374;13.132;2024-03-22T03:10:15;15.93;;;10.03;;
7158;SDS011;63175;52.374;13.132;2024-03-22T03:12:41;15.83;;;10.93;;
7158;SDS011;63175;52.374;13.132;2024-03-22T03:15:09;14.70;;;10.63;;
7158;SDS011;63175;52.374;13.132;2024-03-22T03:17:35;18.13;;;11.23;;
7158;SDS011;63175;52.374;13.132;2024-03-22T03:20:02;16.40;;;10.43;;
7158;SDS011;63175;52.374;13.132;2024-03-22T03:22:32;15.87;;;10.93;;
7158;SDS011;63175;52.374;13.132;2024-03-22T03:24:58;14.47;;;10.30;;
7158;SDS011;63175;52.374;13.132;2024-03-22T03:27:25;12.13;;;9.03;;
7158;SDS011;63175;52.374;13.132;2024-03-22T03:29:51;16.00;;;10.40;;
7158;SDS011;63175;52.374;13.132;2024-03-22T03:32:19;17.67;;;10.50;;
7158;SDS011;63175;52.374;13.132;2024-03-22T03:34:44;16.70;;;10.60;;
7158;SDS011;63175;52.374;13.132;2024-03-22T03:37:11;16.47;;;10.50;;
7158;SDS011;63175;52.374;13.132;2024-03-22T03:39:37;14.20;;;9.63;;
7158;SDS011;63175;52.374;13.132;2024-03-22T03:42:03;17.27;;;10.47;;
7158;SDS011;63175;52.374;13.132;2024-03-22T03:44:29;19.67;;;11.13;;
7158;SDS011;63175;52.374;13.132;2024-03-22T03:46:56;18.63;;;10.60;;
7158;SDS011;63175;52.374;13.132;2024-03-22T03:49:23;16.33;;;9.93;;
7158;SDS011;63175;52.374;13.132;2024-03-22T03:51:50;14.47;;;9.23;;
7158;SDS011;63175;52.374;13.132;2024-03-22T03:54:16;19.03;;;11.77;;
7158;SDS011;63175;52.374;13.132;2024-03-22T03:56:42;15.87;;;10.07;;
7158;SDS011;63175;52.374;13.132;2024-03-22T03:59:08;13.20;;;9.90;;
7158;SDS011;63175;52.374;13.132;2024-03-22T04:01:35;14.40;;;10.30;;
7158;SDS011;63175;52.374;13.132;2024-03-22T04:04:01;17.80;;;10.00;;
7158;SDS011;63175;52.374;13.132;2024-03-22T04:06:29;15.50;;;9.90;;
7158;SDS011;63175;52.374;13.132;2024-03-22T04:08:55;15.43;;;9.50;;
7158;SDS011;63175;52.374;13.132;2024-03-22T04:11:22;16.17;;;10.33;;
7158;SDS011;63175;52.374;13.132;2024-03-22T04:13:48;16.63;;;10.27;;
7158;SDS011;63175;52.374;13.132;2024-03-22T04:16:15;16.10;;;9.90;;
7158;SDS011;63175;52.374;13.132;2024-03-22T04:18:40;14.30;;;9.90;;
7158;SDS011;63175;52.374;13.132;2024-03-22T04:21:07;15.10;;;9.30;;
7158;SDS011;63175;52.374;13.132;2024-03-22T04:23:34;13.40;;;9.07;;
7158;SDS011;63175;52.374;13.132;2024-03-22T04:26:01;13.70;;;9.33;;
7158;SDS011;63175;52.374;13.132;2024-03-22T04:28:28;12.40;;;8.77;;
7158;SDS011;63175;52.374;13.132;2024-03-22T04:30:58;12.37;;;9.20;;
7158;SDS011;63175;52.374;13.132;2024-03-22T04:33:25;20.33;;;9.63;;
7158;SDS011;63175;52.374;13.132;2024-03-22T04:35:52;16.90;;;9.67;;
7158;SDS011;63175;52.374;13.132;2024-03-22T04:38:18;19.70;;;12.13;;
7158;SDS011;63175;52.374;13.132;2024-03-22T04:40:46;12.10;;;9.07;;
7158;SDS011;63175;52.374;13.132;2024-03-22T04:43:13;13.13;;;8.33;;
7158;SDS011;63175;52.374;13.132;2024-03-22T04:45:41;11.60;;;8.93;;
7158;SDS011;63175;52.374;13.132;2024-03-22T04:48:08;13.90;;;9.27;;
7158;SDS011;63175;52.374;13.132;2024-03-22T04:50:34;21.57;;;9.47;;
7158;SDS011;63175;52.374;13.132;2024-03-22T04:53:01;10.77;;;8.47;;
7158;SDS011;63175;52.374;13.132;2024-03-22T04:55:27;11.47;;;7.77;;
7158;SDS011;63175;52.374;13.132;2024-03-22T04:57:55;14.43;;;9.10;;
7158;SDS011;63175;52.374;13.132;2024-03-22T05:00:20;11.30;;;8.27;;
7158;SDS011;63175;52.374;13.132;2024-03-22T05:02:47;10.40;;;7.77;;
7158;SDS011;63175;52.374;13.132;2024-03-22T05:05:13;10.63;;;8.33;;
7158;SDS011;63175;52.374;13.132;2024-03-22T05:07:40;12.77;;;7.97;;
7158;SDS011;63175;52.374;13.132;2024-03-22T05:10:06;11.77;;;8.77;;
7158;SDS011;63175;52.374;13.132;2024-03-22T05:12:33;12.37;;;8.40;;
7158;SDS011;63175;52.374;13.132;2024-03-22T05:15:01;15.77;;;9.70;;
7158;SDS011;63175;52.374;13.132;2024-03-22T05:17:28;13.40;;;9.10;;
7158;SDS011;63175;52.374;13.132;2024-03-22T05:19:54;14.30;;;9.73;;
7158;SDS011;63175;52.374;13.132;2024-03-22T05:22:21;14.13;;;9.23;;
7158;SDS011;63175;52.374;13.132;2024-03-22T05:24:47;13.07;;;10.20;;
7158;SDS011;63175;52.374;13.132;2024-03-22T05:27:13;14.83;;;9.10;;
7158;SDS011;63175;52.374;13.132;2024-03-22T05:29:39;14.03;;;10.03;;
7158;SDS011;63175;52.374;13.132;2024-03-22T05:32:07;14.53;;;9.70;;
7158;SDS011;63175;52.374;13.132;2024-03-22T05:34:33;16.50;;;10.53;;
7158;SDS011;63175;52.374;13.132;2024-03-22T05:37:00;14.87;;;10.43;;
7158;SDS011;63175;52.374;13.132;2024-03-22T05:39:26;15.40;;;10.90;;
7158;SDS011;63175;52.374;13.132;2024-03-22T05:41:52;18.53;;;11.17;;
7158;SDS011;63175;52.374;13.132;2024-03-22T05:44:19;22.17;;;12.20;;
7158;SDS011;63175;52.374;13.132;2024-03-22T05:46:46;18.20;;;11.00;;
7158;SDS011;63175;52.374;13.132;2024-03-22T05:49:14;17.40;;;10.93;;
7158;SDS011;63175;52.374;13.132;2024-03-22T05:51:40;17.83;;;11.33;;
7158;SDS011;63175;52.374;13.132;2024-03-22T05:54:06;16.10;;;11.30;;
7158;SDS011;63175;52.374;13.132;2024-03-22T05:56:32;17.07;;;11.00;;
7158;SDS011;63175;52.374;13.132;2024-03-22T05:58:59;19.43;;;12.00;;
7158;SDS011;63175;52.374;13.132;2024-03-22T06:01:25;16.57;;;10.93;;
7158;SDS011;63175;52.374;13.132;2024-03-22T06:03:51;18.87;;;12.27;;
7158;SDS011;63175;52.374;13.132;2024-03-22T06:06:19;21.37;;;11.73;;
7158;SDS011;63175;52.374;13.132;2024-03-22T06:08:47;20.07;;;12.97;;
7158;SDS011;63175;52.374;13.132;2024-03-22T06:11:17;16.90;;;12.07;;
7158;SDS011;63175;52.374;13.132;2024-03-22T06:13:44;17.90;;;11.10;;
7158;SDS011;63175;52.374;13.132;2024-03-22T06:16:10;17.00;;;11.80;;
7158;SDS011;63175;52.374;13.132;2024-03-22T06:18:36;16.77;;;11.00;;
7158;SDS011;63175;52.374;13.132;2024-03-22T06:21:02;17.23;;;11.30;;
7158;SDS011;63175;52.374;13.132;2024-03-22T06:23:31;22.53;;;11.23;;
7158;SDS011;63175;52.374;13.132;2024-03-22T06:25:57;16.53;;;10.97;;
7158;SDS011;63175;52.374;13.132;2024-03-22T06:28:24;20.97;;;13.53;;
7158;SDS011;63175;52.374;13.132;2024-03-22T06:30:50;18.67;;;12.27;;
7158;SDS011;63175;52.374;13.132;2024-03-22T06:33:17;20.83;;;13.43;;
7158;SDS011;63175;52.374;13.132;2024-03-22T06:35:44;17.87;;;12.60;;
7158;SDS011;63175;52.374;13.132;2024-03-22T06:38:10;17.53;;;13.10;;
7158;SDS011;63175;52.374;13.132;2024-03-22T06:40:38;23.30;;;13.00;;
7158;SDS011;63175;52.374;13.132;2024-03-22T06:43:04;15.37;;;11.33;;
7158;SDS011;63175;52.374;13.132;2024-03-22T06:45:30;20.00;;;11.93;;
7158;SDS011;63175;52.374;13.132;2024-03-22T06:47:56;21.90;;;12.23;;
7158;SDS011;63175;52.374;13.132;2024-03-22T06:50:23;16.97;;;11.73;;
7158;SDS011;63175;52.374;13.132;2024-03-22T06:52:49;16.07;;;11.90;;
7158;SDS011;63175;52.374;13.132;2024-03-22T06:55:16;17.07;;;12.03;;
7158;SDS011;63175;52.374;13.132;2024-03-22T06:57:43;19.60;;;12.67;;
7158;SDS011;63175;52.374;13.132;2024-03-22T07:00:11;19.70;;;13.03;;
7158;SDS011;63175;52.374;13.132;2024-03-22T07:02:38;19.90;;;13.17;;
7158;SDS011;63175;52.374;13.132;2024-03-22T07:05:05;24.03;;;14.13;;
7158;SDS011;63175;52.374;13.132;2024-03-22T07:07:32;18.20;;;12.47;;
7158;SDS011;63175;52.374;13.132;2024-03-22T07:09:59;19.10;;;13.10;;
7158;SDS011;63175;52.374;13.132;2024-03-22T07:12:24;18.37;;;12.30;;
7158;SDS011;63175;52.374;13.132;2024-03-22T07:14:52;16.97;;;11.00;;
7158;SDS011;63175;52.374;13.132;2024-03-22T07:17:18;16.00;;;11.30;;
7158;SDS011;63175;52.374;13.132;2024-03-22T07:19:48;19.07;;;11.97;;
7158;SDS011;63175;52.374;13.132;2024-03-22T07:22:14;22.20;;;14.80;;
7158;SDS011;63175;52.374;13.132;2024-03-22T07:24:41;14.80;;;11.23;;
7158;SDS011;63175;52.374;13.132;2024-03-22T07:27:07;17.47;;;11.57;;
7158;SDS011;63175;52.374;13.132;2024-03-22T07:29:33;14.70;;;10.97;;
7158;SDS011;63175;52.374;13.132;2024-03-22T07:32:00;21.70;;;13.03;;
7158;SDS011;63175;52.374;13.132;2024-03-22T07:34:28;17.73;;;11.70;;
7158;SDS011;63175;52.374;13.132;2024-03-22T07:36:54;14.50;;;10.90;;
7158;SDS011;63175;52.374;13.132;2024-03-22T07:39:20;16.90;;;12.60;;
7158;SDS011;63175;52.374;13.132;2024-03-22T07:41:46;18.53;;;13.00;;
7158;SDS011;63175;52.374;13.132;2024-03-22T07:44:13;21.57;;;11.97;;
7158;SDS011;63175;52.374;13.132;2024-03-22T07:46:39;17.83;;;13.07;;
7158;SDS011;63175;52.374;13.132;2024-03-22T07:49:07;21.30;;;13.37;;
7158;SDS011;63175;52.374;13.132;2024-03-22T07:51:32;21.80;;;14.20;;
7158;SDS011;63175;52.374;13.132;2024-03-22T07:53:59;21.90;;;13.77;;
7158;SDS011;63175;52.374;13.132;2024-03-22T07:56:25;22.63;;;14.00;;
7158;SDS011;63175;52.374;13.132;2024-03-22T07:58:51;16.50;;;12.53;;
7158;SDS011;63175;52.374;13.132;2024-03-22T08:01:17;16.27;;;12.30;;
7158;SDS011;63175;52.374;13.132;2024-03-22T08:03:44;22.87;;;13.27;;
7158;SDS011;63175;52.374;13.132;2024-03-22T08:06:11;23.50;;;14.70;;
7158;SDS011;63175;52.374;13.132;2024-03-22T08:08:38;17.77;;;13.17;;
7158;SDS011;63175;52.374;13.132;2024-03-22T08:11:03;18.27;;;12.73;;
7158;SDS011;63175;52.374;13.132;2024-03-22T08:13:30;19.80;;;12.90;;
7158;SDS011;63175;52.374;13.132;2024-03-22T08:15:56;23.70;;;15.07;;
7158;SDS011;63175;52.374;13.132;2024-03-22T08:18:22;18.77;;;12.60;;
7158;SDS011;63175;52.374;13.132;2024-03-22T08:20:48;19.73;;;13.30;;
7158;SDS011;63175;52.374;13.132;2024-03-22T08:23:16;18.67;;;13.97;;
7158;SDS011;63175;52.374;13.132;2024-03-22T08:25:45;18.80;;;13.07;;
7158;SDS011;63175;52.374;13.132;2024-03-22T08:28:12;17.97;;;12.13;;
7158;SDS011;63175;52.374;13.132;2024-03-22T08:30:38;17.13;;;12.80;;
7158;SDS011;63175;52.374;13.132;2024-03-22T08:33:05;18.23;;;12.37;;
7158;SDS011;63175;52.374;13.132;2024-03-22T08:35:31;19.43;;;13.53;;
7158;SDS011;63175;52.374;13.132;2024-03-22T08:37:58;19.20;;;13.20;;
7158;SDS011;63175;52.374;13.132;2024-03-22T08:40:25;19.27;;;13.80;;
7158;SDS011;63175;52.374;13.132;2024-03-22T08:42:51;19.37;;;12.83;;
7158;SDS011;63175;52.374;13.132;2024-03-22T08:45:17;20.73;;;13.70;;
7158;SDS011;63175;52.374;13.132;2024-03-22T08:47:44;21.03;;;14.03;;
7158;SDS011;63175;52.374;13.132;2024-03-22T08:50:10;17.23;;;12.00;;
7158;SDS011;63175;52.374;13.132;2024-03-22T08:52:37;18.30;;;11.73;;
7158;SDS011;63175;52.374;13.132;2024-03-22T08:55:03;18.50;;;12.77;;
7158;SDS011;63175;52.374;13.132;2024-03-22T08:57:33;19.33;;;14.47;;
7158;SDS011;63175;52.374;13.132;2024-03-22T08:59:59;19.67;;;13.97;;
7158;SDS011;63175;52.374;13.132;2024-03-22T09:02:26;23.10;;;15.60;;
7158;SDS011;63175;52.374;13.132;2024-03-22T09:04:52;21.40;;;13.70;;
7158;SDS011;63175;52.374;13.132;2024-03-22T09:07:19;23.50;;;13.70;;
7158;SDS011;63175;52.374;13.132;2024-03-22T09:09:45;22.50;;;14.37;;
7158;SDS011;63175;52.374;13.132;2024-03-22T09:12:12;29.93;;;15.17;;
7158;SDS011;63175;52.374;13.132;2024-03-22T09:14:39;20.40;;;13.57;;
7158;SDS011;63175;52.374;13.132;2024-03-22T09:17:06;20.60;;;13.40;;
7158;SDS011;63175;52.374;13.132;2024-03-22T09:19:32;19.80;;;13.70;;
7158;SDS011;63175;52.374;13.132;2024-03-22T09:21:58;17.40;;;13.20;;
7158;SDS011;63175;52.374;13.132;2024-03-22T09:24:24;23.23;;;15.03;;
7158;SDS011;63175;52.374;13.132;2024-03-22T09:26:51;21.50;;;13.17;;
7158;SDS011;63175;52.374;13.132;2024-03-22T09:29:18;22.87;;;14.40;;
7158;SDS011;63175;52.374;13.132;2024-03-22T09:31:46;15.40;;;11.17;;
7158;SDS011;63175;52.374;13.132;2024-03-22T09:34:12;15.27;;;11.70;;
7158;SDS011;63175;52.374;13.132;2024-03-22T09:36:41;13.90;;;10.20;;
7158;SDS011;63175;52.374;13.132;2024-03-22T09:39:07;13.97;;;10.87;;
7158;SDS011;63175;52.374;13.132;2024-03-22T09:41:33;18.53;;;12.60;;
7158;SDS011;63175;52.374;13.132;2024-03-22T09:44:08;20.47;;;13.40;;
7158;SDS011;63175;52.374;13.132;2024-03-22T09:46:38;16.27;;;11.70;;
7158;SDS011;63175;52.374;13.132;2024-03-22T09:49:07;19.67;;;11.93;;
7158;SDS011;63175;52.374;13.132;2024-03-22T09:51:35;17.97;;;11.37;;
7158;SDS011;63175;52.374;13.132;2024-03-22T09:54:03;15.60;;;11.87;;
7158;SDS011;63175;52.374;13.132;2024-03-22T09:56:29;16.70;;;10.93;;
7158;SDS011;63175;52.374;13.132;2024-03-22T09:58:57;14.50;;;10.30;;
7158;SDS011;63175;52.374;13.132;2024-03-22T10:01:23;23.63;;;12.47;;
7158;SDS011;63175;52.374;13.132;2024-03-22T10:03:51;14.40;;;10.37;;
7158;SDS011;63175;52.374;13.132;2024-03-22T10:06:18;13.80;;;10.60;;
7158;SDS011;63175;52.374;13.132;2024-03-22T10:08:45;23.67;;;12.73;;
7158;SDS011;63175;52.374;13.132;2024-03-22T10:11:10;16.97;;;11.90;;
7158;SDS011;63175;52.374;13.132;2024-03-22T10:13:37;20.10;;;12.73;;
7158;SDS011;63175;52.374;13.132;2024-03-22T10:16:04;16.10;;;10.80;;
7158;SDS011;63175;52.374;13.132;2024-03-22T10:18:32;12.60;;;9.70;;
7158;SDS011;63175;52.374;13.132;2024-03-22T10:20:59;18.13;;;11.70;;
7158;SDS011;63175;52.374;13.132;2024-03-22T10:23:28;16.00;;;11.00;;
7158;SDS011;63175;52.374;13.132;2024-03-22T10:25:55;16.20;;;10.83;;
7158;SDS011;63175;52.374;13.132;2024-03-22T10:28:22;28.10;;;14.23;;
7158;SDS011;63175;52.374;13.132;2024-03-22T10:30:50;17.03;;;10.60;;
7158;SDS011;63175;52.374;13.132;2024-03-22T10:33:18;17.53;;;10.87;;
7158;SDS011;63175;52.374;13.132;2024-03-22T10:35:44;17.80;;;11.90;;
7158;SDS011;63175;52.374;13.132;2024-03-22T10:38:12;16.93;;;11.80;;
7158;SDS011;63175;52.374;13.132;2024-03-22T10:40:40;18.10;;;12.03;;
7158;SDS011;63175;52.374;13.132;2024-03-22T10:43:10;18.83;;;9.40;;
7158;SDS011;63175;52.374;13.132;2024-03-22T10:45:35;16.47;;;9.83;;
7158;SDS011;63175;52.374;13.132;2024-03-22T10:48:04;20.77;;;11.90;;
7158;SDS011;63175;52.374;13.132;2024-03-22T10:50:35;19.47;;;12.37;;
7158;SDS011;63175;52.374;13.132;2024-03-22T10:53:06;16.03;;;10.70;;
7158;SDS011;63175;52.374;13.132;2024-03-22T10:55:34;14.80;;;10.87;;
7158;SDS011;63175;52.374;13.132;2024-03-22T10:58:04;17.00;;;10.50;;
7158;SDS011;63175;52.374;13.132;2024-03-22T11:00:31;14.40;;;11.10;;
7158;SDS011;63175;52.374;13.132;2024-03-22T11:02:58;13.57;;;10.20;;
7158;SDS011;63175;52.374;13.132;2024-03-22T11:05:27;18.67;;;13.47;;
7158;SDS011;63175;52.374;13.132;2024-03-22T11:08:00;20.70;;;11.63;;
7158;SDS011;63175;52.374;13.132;2024-03-22T11:10:28;15.83;;;11.67;;
7158;SDS011;63175;52.374;13.132;2024-03-22T11:13:00;16.03;;;11.50;;
7158;SDS011;63175;52.374;13.132;2024-03-22T11:15:29;21.10;;;12.40;;
7158;SDS011;63175;52.374;13.132;2024-03-22T11:17:56;18.93;;;11.40;;
7158;SDS011;63175;52.374;13.132;2024-03-22T11:20:22;17.13;;;10.67;;
7158;SDS011;63175;52.374;13.132;2024-03-22T11:22:49;12.93;;;9.13;;
7158;SDS011;63175;52.374;13.132;2024-03-22T11:25:16;15.33;;;10.20;;
7158;SDS011;63175;52.374;13.132;2024-03-22T11:27:42;12.60;;;9.67;;
7158;SDS011;63175;52.374;13.132;2024-03-22T11:30:08;16.47;;;11.90;;
7158;SDS011;63175;52.374;13.132;2024-03-22T11:32:37;12.93;;;9.87;;
7158;SDS011;63175;52.374;13.132;2024-03-22T11:35:09;15.20;;;8.97;;
7158;SDS011;63175;52.374;13.132;2024-03-22T11:37:36;19.77;;;9.73;;
7158;SDS011;63175;52.374;13.132;2024-03-22T11:40:03;12.77;;;8.77;;
7158;SDS011;63175;52.374;13.132;2024-03-22T11:42:31;12.13;;;9.67;;
7158;SDS011;63175;52.374;13.132;2024-03-22T11:44:58;17.40;;;9.80;;
7158;SDS011;63175;52.374;13.132;2024-03-22T11:47:25;14.40;;;10.23;;
7158;SDS011;63175;52.374;13.132;2024-03-22T11:49:53;17.47;;;10.57;;
7158;SDS011;63175;52.374;13.132;2024-03-22T11:52:23;14.60;;;10.67;;
7158;SDS011;63175;52.374;13.132;2024-03-22T11:54:51;17.47;;;10.93;;
7158;SDS011;63175;52.374;13.132;2024-03-22T11:57:17;11.97;;;9.73;;
7158;SDS011;63175;52.374;13.132;2024-03-22T11:59:44;13.30;;;9.27;;
7158;SDS011;63175;52.374;13.132;2024-03-22T12:02:10;15.13;;;10.10;;
7158;SDS011;63175;52.374;13.132;2024-03-22T12:04:40;13.23;;;8.80;;
7158;SDS011;63175;52.374;13.132;2024-03-22T12:07:10;17.43;;;11.80;;
7158;SDS011;63175;52.374;13.132;2024-03-22T12:09:37;18.07;;;11.67;;
7158;SDS011;63175;52.374;13.132;2024-03-22T12:12:03;12.97;;;8.90;;
7158;SDS011;63175;52.374;13.132;2024-03-22T12:14:31;11.43;;;9.50;;
7158;SDS011;63175;52.374;13.132;2024-03-22T12:16:57;18.83;;;10.97;;
7158;SDS011;63175;52.374;13.132;2024-03-22T12:19:24;21.00;;;13.00;;
7158;SDS011;63175;52.374;13.132;2024-03-22T12:21:49;17.20;;;11.87;;
7158;SDS011;63175;52.374;13.132;2024-03-22T12:24:18;18.60;;;11.77;;
7158;SDS011;63175;52.374;13.132;2024-03-22T12:26:44;15.07;;;11.00;;
7158;SDS011;63175;52.374;13.132;2024-03-22T12:29:10;18.50;;;11.57;;
7158;SDS011;63175;52.374;13.132;2024-03-22T12:31:37;14.13;;;9.83;;
7158;SDS011;63175;52.374;13.132;2024-03-22T12:34:04;22.50;;;13.40;;
7158;SDS011;63175;52.374;13.132;2024-03-22T12:36:30;13.07;;;9.90;;
7158;SDS011;63175;52.374;13.132;2024-03-22T12:38:56;20.00;;;13.10;;
7158;SDS011;63175;52.374;13.132;2024-03-22T12:41:23;14.23;;;10.37;;
7158;SDS011;63175;52.374;13.132;2024-03-22T12:43:50;28.00;;;14.40;;
7158;SDS011;63175;52.374;13.132;2024-03-22T12:46:16;21.03;;;11.90;;
7158;SDS011;63175;52.374;13.132;2024-03-22T12:48:43;18.03;;;11.40;;
7158;SDS011;63175;52.374;13.132;2024-03-22T12:51:09;18.50;;;11.70;;
7158;SDS011;63175;52.374;13.132;2024-03-22T12:53:36;23.40;;;11.60;;
7158;SDS011;63175;52.374;13.132;2024-03-22T12:56:02;15.10;;;10.17;;
7158;SDS011;63175;52.374;13.132;2024-03-22T12:58:30;12.60;;;8.30;;
7158;SDS011;63175;52.374;13.132;2024-03-22T13:00:56;12.50;;;8.57;;
7158;SDS011;63175;52.374;13.132;2024-03-22T13:03:23;12.90;;;8.07;;
7158;SDS011;63175;52.374;13.132;2024-03-22T13:05:49;8.80;;;7.63;;
7158;SDS011;63175;52.374;13.132;2024-03-22T13:08:15;9.00;;;6.87;;
7158;SDS011;63175;52.374;13.132;2024-03-22T13:10:41;10.40;;;7.63;;
7158;SDS011;63175;52.374;13.132;2024-03-22T13:13:09;11.43;;;8.03;;
7158;SDS011;63175;52.374;13.132;2024-03-22T13:15:37;9.50;;;6.73;;
7158;SDS011;63175;52.374;13.132;2024-03-22T13:18:04;13.30;;;8.10;;
7158;SDS011;63175;52.374;13.132;2024-03-22T13:20:30;10.00;;;7.23;;
7158;SDS011;63175;52.374;13.132;2024-03-22T13:22:56;17.13;;;10.27;;
7158;SDS011;63175;52.374;13.132;2024-03-22T13:25:22;22.17;;;12.17;;
7158;SDS011;63175;52.374;13.132;2024-03-22T13:27:49;14.57;;;9.80;;
7158;SDS011;63175;52.374;13.132;2024-03-22T13:30:15;16.27;;;10.50;;
7158;SDS011;63175;52.374;13.132;2024-03-22T13:32:43;11.70;;;9.80;;
7158;SDS011;63175;52.374;13.132;2024-03-22T13:35:09;18.27;;;11.03;;
7158;SDS011;63175;52.374;13.132;2024-03-22T13:37:36;20.20;;;13.00;;
7158;SDS011;63175;52.374;13.132;2024-03-22T13:40:02;19.30;;;11.87;;
7158;SDS011;63175;52.374;13.132;2024-03-22T13:42:29;15.30;;;9.97;;
7158;SDS011;63175;52.374;13.132;2024-03-22T13:44:55;17.23;;;11.50;;
7158;SDS011;63175;52.374;13.132;2024-03-22T13:47:23;17.67;;;10.73;;
7158;SDS011;63175;52.374;13.132;2024-03-22T13:49:51;18.20;;;11.93;;
7158;SDS011;63175;52.374;13.132;2024-03-22T13:52:18;18.80;;;12.00;;
7158;SDS011;63175;52.374;13.132;2024-03-22T13:54:45;24.20;;;12.83;;
7158;SDS011;63175;52.374;13.132;2024-03-22T13:57:12;18.80;;;11.67;;
7158;SDS011;63175;52.374;13.132;2024-03-22T13:59:38;17.00;;;11.63;;
7158;SDS011;63175;52.374;13.132;2024-03-22T14:02:05;18.73;;;11.30;;
7158;SDS011;63175;52.374;13.132;2024-03-22T14:04:32;20.50;;;12.67;;
7158;SDS011;63175;52.374;13.132;2024-03-22T14:07:00;27.27;;;16.00;;
7158;SDS011;63175;52.374;13.132;2024-03-22T14:09:29;19.20;;;13.00;;
7158;SDS011;63175;52.374;13.132;2024-03-22T14:11:56;20.97;;;14.27;;
7158;SDS011;63175;52.374;13.132;2024-03-22T14:14:22;28.43;;;16.10;;
7158;SDS011;63175;52.374;13.132;2024-03-22T14:16:50;24.60;;;13.70;;
7158;SDS011;63175;52.374;13.132;2024-03-22T14:19:16;21.93;;;13.53;;
7158;SDS011;63175;52.374;13.132;2024-03-22T14:21:44;23.70;;;15.13;;
7158;SDS011;63175;52.374;13.132;2024-03-22T14:24:11;21.13;;;13.40;;